createdAt,value
2023-04-29T00:01:22.069Z,96374.47
2023-04-29T00:03:50.707Z,96376.53
2023-04-29T00:06:19.173Z,96384.06
2023-04-29T00:08:47.516Z,96394.19
2023-04-29T00:11:16.964Z,96388.59
2023-04-29T00:13:45.152Z,96389.41
2023-04-29T00:16:13.933Z,96396.94
2023-04-29T00:18:42.639Z,96398.16
2023-04-29T00:21:11.078Z,96391.03
2023-04-29T00:23:39.163Z,96389.69
2023-04-29T00:26:07.377Z,96381.88
2023-04-29T00:28:37.121Z,96378.19
2023-04-29T00:31:05.292Z,96377.38
2023-04-29T00:33:33.754Z,96382.56
2023-04-29T00:36:02.278Z,96378.47
2023-04-29T00:38:30.793Z,96373.25
2023-04-29T00:40:59.139Z,96377.22
2023-04-29T00:43:27.428Z,96374.78
2023-04-29T00:45:57.766Z,96374.94
2023-04-29T00:48:27.350Z,96366.97
2023-04-29T00:50:56.418Z,96367.94
2023-04-29T00:53:24.887Z,96360.16
2023-04-29T00:55:53.453Z,96360.94
2023-04-29T00:58:22.847Z,96361.13
2023-04-29T01:00:51.213Z,96368.59
2023-04-29T01:03:20.922Z,96362.75
2023-04-29T01:06:01.828Z,96361.75
2023-04-29T01:08:39.170Z,96358.22
2023-04-29T01:11:11.047Z,96355.34
2023-04-29T01:13:46.853Z,96357.25
2023-04-29T01:16:22.790Z,96357.25
2023-04-29T01:18:56.468Z,96365.19
2023-04-29T01:21:31.950Z,96352.06
2023-04-29T01:24:02.007Z,96362.34
2023-04-29T01:26:35.558Z,96353.88
2023-04-29T01:29:33.960Z,96354.28
2023-04-29T01:32:09.108Z,96355.22
2023-04-29T01:34:45.635Z,96358.25
2023-04-29T01:37:19.468Z,96361.94
2023-04-29T01:39:59.520Z,96368.22
2023-04-29T01:42:37.720Z,96365.09
2023-04-29T01:45:12.737Z,96358.09
2023-04-29T01:47:41.856Z,96369.59
2023-04-29T01:50:10.788Z,96369.03
2023-04-29T01:52:39.830Z,96372.31
2023-04-29T01:55:11.244Z,96367.81
2023-04-29T01:57:47.353Z,96369.56
2023-04-29T02:00:29.320Z,96364.38
2023-04-29T02:02:57.990Z,96365.34
2023-04-29T02:05:36.021Z,96364.22
2023-04-29T02:08:04.545Z,96365.06
2023-04-29T02:10:35.996Z,96357.25
2023-04-29T02:13:14.951Z,96354.50
2023-04-29T02:15:43.766Z,96350.41
2023-04-29T02:18:11.941Z,96362.31
2023-04-29T02:20:42.188Z,96371.78
2023-04-29T02:23:10.712Z,96357.97
2023-04-29T02:25:40.476Z,96357.13
2023-04-29T02:28:09.898Z,96355.09
2023-04-29T02:30:41.102Z,96358.66
2023-04-29T02:33:09.569Z,96360.28
2023-04-29T02:35:37.930Z,96353.16
2023-04-29T02:38:06.071Z,96357.38
2023-04-29T02:40:34.210Z,96351.78
2023-04-29T02:43:03.744Z,96352.88
2023-04-29T02:45:32.048Z,96354.38
2023-04-29T02:48:00.851Z,96361.63
2023-04-29T02:50:47.896Z,96360.00
2023-04-29T02:53:34.505Z,96367.25
2023-04-29T02:56:02.848Z,96371.22
2023-04-29T02:58:32.510Z,96373.94
2023-04-29T03:01:00.797Z,96377.66
2023-04-29T03:03:29.228Z,96379.44
2023-04-29T03:05:57.642Z,96374.63
2023-04-29T03:08:26.118Z,96379.00
2023-04-29T03:10:54.266Z,96379.69
2023-04-29T03:13:22.336Z,96376.13
2023-04-29T03:15:52.070Z,96372.03
2023-04-29T03:18:20.133Z,96369.56
2023-04-29T03:20:49.379Z,96364.53
2023-04-29T03:23:17.688Z,96364.38
2023-04-29T03:25:45.984Z,96367.41
2023-04-29T03:28:15.075Z,96366.03
2023-04-29T03:30:43.386Z,96367.38
2023-04-29T03:33:13.049Z,96361.25
2023-04-29T03:35:41.237Z,96355.91
2023-04-29T03:38:21.804Z,96356.03
2023-04-29T03:40:50.622Z,96354.16
2023-04-29T03:43:19.725Z,96354.97
2023-04-29T03:45:48.244Z,96340.75
2023-04-29T03:48:21.549Z,96332.13
2023-04-29T03:50:50.324Z,96317.06
2023-04-29T03:53:18.603Z,96328.69
2023-04-29T03:55:48.604Z,96339.50
2023-04-29T03:58:17.646Z,96345.25
2023-04-29T04:00:46.259Z,96345.25
2023-04-29T04:03:22.954Z,96337.19
2023-04-29T04:05:51.822Z,96341.56
2023-04-29T04:08:19.928Z,96341.28
2023-04-29T04:11:04.767Z,96337.16
2023-04-29T04:13:44.499Z,96327.59
2023-04-29T04:16:13.057Z,96335.66
2023-04-29T04:18:42.886Z,96327.72
2023-04-29T04:21:12.264Z,96323.63
2023-04-29T04:23:44.199Z,96336.75
2023-04-29T04:26:15.663Z,96332.25
2023-04-29T04:29:03.094Z,96331.16
2023-04-29T04:31:41.554Z,96334.44
2023-04-29T04:34:12.268Z,96335.41
2023-04-29T04:36:41.478Z,96334.16
2023-04-29T04:39:09.662Z,96335.25
2023-04-29T04:41:38.008Z,96336.47
2023-04-29T04:44:06.511Z,96343.59
2023-04-29T04:46:43.410Z,96340.19
2023-04-29T04:49:30.071Z,96335.78
2023-04-29T04:51:58.822Z,96341.69
2023-04-29T04:54:27.293Z,96345.78
2023-04-29T04:57:06.276Z,96333.88
2023-04-29T04:59:34.950Z,96346.59
2023-04-29T05:02:04.374Z,96346.59
2023-04-29T05:04:33.977Z,96353.59
2023-04-29T05:07:02.414Z,96343.41
2023-04-29T05:09:37.529Z,96349.63
2023-04-29T05:12:05.987Z,96356.41
2023-04-29T05:14:34.423Z,96354.72
2023-04-29T05:17:03.170Z,96345.84
2023-04-29T05:19:31.512Z,96340.00
2023-04-29T05:22:01.350Z,96343.69
2023-04-29T05:24:30.607Z,96346.34
2023-04-29T05:26:58.757Z,96349.00
2023-04-29T05:29:27.533Z,96349.16
2023-04-29T05:32:00.023Z,96344.88
2023-04-29T05:34:28.572Z,96354.41
2023-04-29T05:36:57.566Z,96356.63
2023-04-29T05:39:27.818Z,96353.41
2023-04-29T05:42:07.981Z,96346.91
2023-04-29T05:44:40.102Z,96353.16
2023-04-29T05:47:08.391Z,96356.19
2023-04-29T05:49:36.925Z,96354.69
2023-04-29T05:52:06.742Z,96351.59
2023-04-29T05:54:41.725Z,96352.53
2023-04-29T05:57:10.030Z,96356.47
2023-04-29T05:59:38.073Z,96359.94
2023-04-29T06:02:07.553Z,96355.41
2023-04-29T06:04:37.957Z,96357.16
2023-04-29T06:07:18.894Z,96360.28
2023-04-29T06:10:13.088Z,96370.31
2023-04-29T06:12:44.091Z,96367.94
2023-04-29T06:15:13.892Z,96373.44
2023-04-29T06:17:42.439Z,96381.66
2023-04-29T06:20:11.696Z,96380.91
2023-04-29T06:22:41.270Z,96380.38
2023-04-29T06:25:10.582Z,96382.28
2023-04-29T06:27:51.047Z,96382.59
2023-04-29T06:30:22.382Z,96379.56
2023-04-29T06:32:50.616Z,96381.31
2023-04-29T06:35:19.058Z,96377.31
2023-04-29T06:38:08.305Z,96381.66
2023-04-29T06:40:42.564Z,96380.22
2023-04-29T06:43:17.929Z,96377.94
2023-04-29T06:46:04.828Z,96377.75
2023-04-29T06:48:41.904Z,96376.16
2023-04-29T06:51:10.178Z,96379.94
2023-04-29T06:53:39.756Z,96379.97
2023-04-29T06:56:09.022Z,96378.97
2023-04-29T06:58:38.610Z,96390.22
2023-04-29T07:01:09.467Z,96395.81
2023-04-29T07:03:38.067Z,96392.53
2023-04-29T07:06:06.663Z,96393.19
2023-04-29T07:08:34.913Z,96392.00
2023-04-29T07:11:04.343Z,96393.66
2023-04-29T07:13:32.856Z,96399.09
2023-04-29T07:16:02.365Z,96401.63
2023-04-29T07:18:30.414Z,96405.63
2023-04-29T07:21:02.346Z,96412.34
2023-04-29T07:23:30.582Z,96412.19
2023-04-29T07:25:59.216Z,96411.00
2023-04-29T07:28:27.956Z,96403.47
2023-04-29T07:30:57.523Z,96408.00
2023-04-29T07:33:27.231Z,96407.88
2023-04-29T07:35:55.433Z,96414.34
2023-04-29T07:38:23.755Z,96418.81
2023-04-29T07:40:52.035Z,96411.22
2023-04-29T07:43:20.494Z,96413.97
2023-04-29T07:45:49.038Z,96402.00
2023-04-29T07:48:17.358Z,96408.66
2023-04-29T07:50:47.200Z,96413.78
2023-04-29T07:53:17.489Z,96415.91
2023-04-29T07:55:45.631Z,96421.03
2023-04-29T07:58:14.186Z,96421.59
2023-04-29T08:00:42.451Z,96430.44
2023-04-29T08:03:11.231Z,96434.94
2023-04-29T08:05:39.793Z,96436.91
2023-04-29T08:08:09.655Z,96439.38
2023-04-29T08:10:43.258Z,96438.28
2023-04-29T08:13:11.608Z,96444.44
2023-04-29T08:15:41.070Z,96443.09
2023-04-29T08:18:09.283Z,96443.53
2023-04-29T08:20:37.579Z,96439.97
2023-04-29T08:23:05.922Z,96436.69
2023-04-29T08:25:35.611Z,96439.38
2023-04-29T08:28:04.099Z,96439.66
2023-04-29T08:30:32.192Z,96437.88
2023-04-29T08:33:00.620Z,96443.41
2023-04-29T08:35:28.859Z,96449.22
2023-04-29T08:37:57.859Z,96450.81
2023-04-29T08:40:26.701Z,96457.31
2023-04-29T08:42:57.186Z,96458.84
2023-04-29T08:45:26.360Z,96463.22
2023-04-29T08:47:56.597Z,96461.81
2023-04-29T08:50:25.906Z,96471.78
2023-04-29T08:52:54.690Z,96466.88
2023-04-29T08:55:23.273Z,96474.03
2023-04-29T08:57:53.940Z,96475.47
2023-04-29T09:00:25.729Z,96471.50
2023-04-29T09:02:57.786Z,96471.41
2023-04-29T09:05:27.394Z,96470.66
2023-04-29T09:07:59.759Z,96471.13
2023-04-29T09:10:28.637Z,96468.34
2023-04-29T09:12:58.278Z,96475.97
2023-04-29T09:15:28.122Z,96473.97
2023-04-29T09:17:57.418Z,96486.44
2023-04-29T09:20:29.206Z,96475.56
2023-04-29T09:22:59.228Z,96484.34
2023-04-29T09:25:27.813Z,96485.47
2023-04-29T09:27:57.170Z,96490.44
2023-04-29T09:30:27.140Z,96494.78
2023-04-29T09:33:07.608Z,96499.59
2023-04-29T09:35:37.105Z,96500.25
2023-04-29T09:38:13.622Z,96496.53
2023-04-29T09:40:56.730Z,96503.91
2023-04-29T09:43:26.524Z,96510.47
2023-04-29T09:45:56.099Z,96515.75
2023-04-29T09:48:33.767Z,96515.03
2023-04-29T09:51:03.914Z,96519.50
2023-04-29T09:53:33.084Z,96518.47
2023-04-29T09:56:02.537Z,96511.59
2023-04-29T09:58:34.202Z,96510.22
2023-04-29T10:01:05.057Z,96513.19
2023-04-29T10:03:35.177Z,96507.56
2023-04-29T10:06:05.830Z,96511.56
2023-04-29T10:08:35.394Z,96508.53
2023-04-29T10:11:05.945Z,96514.53
2023-04-29T10:13:38.555Z,96506.44
2023-04-29T10:16:16.931Z,96504.38
2023-04-29T10:18:53.454Z,96504.94
2023-04-29T10:21:28.115Z,96504.06
2023-04-29T10:23:58.688Z,96506.41
2023-04-29T10:26:29.444Z,96496.78
2023-04-29T10:29:00.025Z,96509.72
2023-04-29T10:31:30.325Z,96508.22
2023-04-29T10:34:00.608Z,96499.03
2023-04-29T10:36:31.712Z,96505.28
2023-04-29T10:39:06.208Z,96502.63
2023-04-29T10:41:39.086Z,96507.50
2023-04-29T10:44:07.741Z,96501.16
2023-04-29T10:46:38.222Z,96507.31
2023-04-29T10:49:08.346Z,96503.63
2023-04-29T10:51:40.902Z,96514.22
2023-04-29T10:54:11.129Z,96516.22
2023-04-29T10:56:41.654Z,96508.19
2023-04-29T10:59:14.459Z,96520.50
2023-04-29T11:01:46.688Z,96512.16
2023-04-29T11:04:15.402Z,96507.66
2023-04-29T11:06:46.400Z,96511.75
2023-04-29T11:09:16.960Z,96506.41
2023-04-29T11:11:49.896Z,96510.50
2023-04-29T11:14:26.320Z,96511.31
2023-04-29T11:16:58.979Z,96513.25
2023-04-29T11:19:32.830Z,96514.72
2023-04-29T11:22:26.512Z,96516.72
2023-04-29T11:24:58.079Z,96519.31
2023-04-29T11:27:27.906Z,96508.69
2023-04-29T11:29:58.860Z,96510.97
2023-04-29T11:32:30.348Z,96514.25
2023-04-29T11:35:09.925Z,96521.63
2023-04-29T11:37:38.021Z,96518.28
2023-04-29T11:40:07.907Z,96526.09
2023-04-29T11:42:36.787Z,96527.88
2023-04-29T11:45:06.995Z,96535.00
2023-04-29T11:47:37.470Z,96542.19
2023-04-29T11:50:06.417Z,96536.69
2023-04-29T11:52:37.114Z,96547.59
2023-04-29T11:55:07.674Z,96550.78
2023-04-29T11:57:35.983Z,96553.13
2023-04-29T12:00:07.385Z,96558.38
2023-04-29T12:02:40.788Z,96564.16
2023-04-29T12:05:10.247Z,96562.72
2023-04-29T12:07:38.797Z,96558.22
2023-04-29T12:10:10.918Z,96562.78
2023-04-29T12:12:41.034Z,96571.66
2023-04-29T12:15:10.665Z,96570.56
2023-04-29T12:17:41.004Z,96569.50
2023-04-29T12:20:12.035Z,96565.09
2023-04-29T12:22:40.528Z,96574.97
2023-04-29T12:25:09.843Z,96567.56
2023-04-29T12:27:41.560Z,96564.59
2023-04-29T12:30:11.412Z,96569.75
2023-04-29T12:32:41.257Z,96567.06
2023-04-29T12:35:17.596Z,96575.56
2023-04-29T12:37:49.678Z,96573.25
2023-04-29T12:40:20.459Z,96578.38
2023-04-29T12:42:49.176Z,96571.19
2023-04-29T12:45:31.743Z,96569.84
2023-04-29T12:48:07.258Z,96580.34
2023-04-29T12:50:39.284Z,96582.00
2023-04-29T12:53:08.821Z,96583.28
2023-04-29T12:55:38.462Z,96578.75
2023-04-29T12:58:07.537Z,96586.75
2023-04-29T13:00:37.552Z,96584.16
2023-04-29T13:03:07.480Z,96575.81
2023-04-29T13:05:36.268Z,96578.22
2023-04-29T13:08:06.011Z,96582.34
2023-04-29T13:10:34.918Z,96581.50
2023-04-29T13:13:02.980Z,96585.63
2023-04-29T13:15:31.456Z,96584.50
2023-04-29T13:17:59.706Z,96598.41
2023-04-29T13:20:29.582Z,96595.25
2023-04-29T13:22:57.706Z,96601.84
2023-04-29T13:25:25.874Z,96608.41
2023-04-29T13:27:54.936Z,96605.50
2023-04-29T13:30:23.835Z,96615.94
2023-04-29T13:32:55.443Z,96618.25
2023-04-29T13:35:27.183Z,96618.72
2023-04-29T13:37:57.134Z,96625.06
2023-04-29T13:40:28.060Z,96631.13
2023-04-29T13:43:04.380Z,96629.59
2023-04-29T13:45:38.883Z,96626.16
2023-04-29T13:48:20.836Z,96623.50
2023-04-29T13:59:08.656Z,96630.78
2023-04-29T14:02:08.056Z,96637.19
2023-04-29T14:04:07.036Z,96637.03
2023-04-29T14:06:35.272Z,96644.22
2023-04-29T14:09:05.031Z,96641.97
2023-04-29T14:11:36.833Z,96641.13
2023-04-29T14:14:05.609Z,96647.19
2023-04-29T14:16:34.003Z,96640.03
2023-04-29T14:19:03.938Z,96652.03
2023-04-29T14:21:33.532Z,96656.72
2023-04-29T14:24:03.441Z,96658.09
2023-04-29T14:26:33.150Z,96654.25
2023-04-29T14:29:01.464Z,96661.59
2023-04-29T14:31:31.291Z,96654.72
2023-04-29T14:34:00.423Z,96660.59
2023-04-29T14:36:28.941Z,96669.91
2023-04-29T14:38:57.197Z,96668.72
2023-04-29T14:41:25.706Z,96668.47
2023-04-29T14:43:55.306Z,96673.91
2023-04-29T14:46:23.783Z,96675.31
2023-04-29T14:48:52.014Z,96683.03
2023-04-29T14:51:20.518Z,96681.53
2023-04-29T14:53:48.721Z,96683.72
2023-04-29T14:57:30.379Z,96692.50
2023-04-29T15:04:04.606Z,96700.47
2023-04-29T15:07:46.262Z,96710.06
2023-04-29T15:42:31.087Z,96755.81
2023-04-29T15:44:59.322Z,96761.44
2023-04-29T15:47:27.604Z,96762.09
2023-04-29T15:49:56.753Z,96761.66
2023-04-29T15:52:25.154Z,96769.75
2023-04-29T15:54:53.222Z,96774.00
2023-04-29T15:57:21.485Z,96776.84
2023-04-29T15:59:51.828Z,96780.69
2023-04-29T16:02:21.285Z,96784.41
2023-04-29T16:04:49.686Z,96788.41
2023-04-29T16:07:18.393Z,96788.59
2023-04-29T16:09:46.717Z,96792.47
2023-04-29T16:12:15.118Z,96794.72
2023-04-29T16:14:43.776Z,96796.47
2023-04-29T16:17:13.832Z,96804.28
2023-04-29T16:19:42.023Z,96799.78
2023-04-29T16:22:10.264Z,96802.84
2023-04-29T16:25:04.257Z,96801.03
2023-04-29T16:27:32.613Z,96807.72
2023-04-29T16:30:01.037Z,96804.75
2023-04-29T16:32:31.535Z,96811.59
2023-04-29T16:35:01.363Z,96812.41
2023-04-29T16:37:33.322Z,96808.72
2023-04-29T16:40:02.000Z,96809.81
2023-04-29T16:42:30.129Z,96815.72
2023-04-29T16:44:58.440Z,96819.50
2023-04-29T16:47:27.662Z,96824.47
2023-04-29T16:49:57.829Z,96831.19
2023-04-29T16:52:26.029Z,96826.81
2023-04-29T16:54:56.365Z,96833.22
2023-04-29T16:57:26.633Z,96836.63
2023-04-29T16:59:56.504Z,96841.59
2023-04-29T17:02:25.087Z,96840.34
2023-04-29T17:04:53.659Z,96846.78
2023-04-29T17:07:23.961Z,96845.44
2023-04-29T17:09:52.707Z,96848.88
2023-04-29T17:12:21.044Z,96852.41
2023-04-29T17:14:49.456Z,96855.97
2023-04-29T17:17:18.098Z,96858.28
2023-04-29T17:19:50.098Z,96864.88
2023-04-29T17:22:18.520Z,96859.91
2023-04-29T17:24:49.074Z,96861.44
2023-04-29T17:27:17.415Z,96856.63
2023-04-29T17:29:45.793Z,96866.78
2023-04-29T17:32:17.319Z,96877.66
2023-04-29T17:34:45.488Z,96874.94
2023-04-29T17:37:14.097Z,96874.50
2023-04-29T17:39:42.349Z,96871.06
2023-04-29T17:42:12.174Z,96880.09
2023-04-29T17:44:40.363Z,96885.28
2023-04-29T17:47:11.021Z,96875.38
2023-04-29T17:49:40.272Z,96880.28
2023-04-29T17:52:08.944Z,96891.50
2023-04-29T17:54:39.814Z,96894.22
2023-04-29T17:57:08.744Z,96897.66
2023-04-29T17:59:38.966Z,96899.69
2023-04-29T18:02:07.281Z,96905.56
2023-04-29T18:04:37.412Z,96905.69
2023-04-29T18:07:06.763Z,96910.06
2023-04-29T18:09:35.855Z,96916.69
2023-04-29T18:12:05.047Z,96915.72
2023-04-29T18:14:33.329Z,96914.91
2023-04-29T18:17:03.331Z,96919.16
2023-04-29T18:19:31.491Z,96915.34
2023-04-29T18:22:01.420Z,96924.25
2023-04-29T18:24:29.729Z,96924.25
2023-04-29T18:26:58.280Z,96926.97
2023-04-29T18:29:26.969Z,96934.88
2023-04-29T18:31:55.940Z,96929.16
2023-04-29T18:34:26.228Z,96935.31
2023-04-29T18:36:54.924Z,96939.78
2023-04-29T18:39:23.018Z,96940.59
2023-04-29T18:41:51.190Z,96939.66
2023-04-29T18:44:19.461Z,96939.91
2023-04-29T18:46:47.552Z,96949.53
2023-04-29T18:49:17.011Z,96947.16
2023-04-29T18:51:47.509Z,96947.09
2023-04-29T18:54:16.916Z,96956.66
2023-04-29T18:56:47.428Z,96960.53
2023-04-29T18:59:19.326Z,96967.25
2023-04-29T19:01:49.000Z,96968.91
2023-04-29T19:04:17.687Z,96970.06
2023-04-29T19:06:48.190Z,96971.97
2023-04-29T19:09:16.329Z,96984.28
2023-04-29T19:11:44.364Z,96983.69
2023-04-29T19:14:12.525Z,96984.88
2023-04-29T19:16:40.624Z,96993.63
2023-04-29T19:19:08.987Z,96996.34
2023-04-29T19:21:37.878Z,96992.22
2023-04-29T19:24:07.824Z,96996.59
2023-04-29T19:26:36.809Z,97002.50
2023-04-29T19:29:07.426Z,96998.38
2023-04-29T19:31:35.721Z,97015.84
2023-04-29T19:34:03.931Z,97006.28
2023-04-29T19:36:33.258Z,97009.13
2023-04-29T19:39:02.457Z,97012.78
2023-04-29T19:41:34.712Z,97017.97
2023-04-29T19:44:03.525Z,97016.09
2023-04-29T19:46:31.880Z,97020.47
2023-04-29T19:49:00.067Z,97021.75
2023-04-29T19:51:28.709Z,97014.78
2023-04-29T19:54:00.170Z,97026.25
2023-04-29T19:56:28.367Z,97024.91
2023-04-29T19:58:57.884Z,97023.16
2023-04-29T20:01:26.129Z,97022.78
2023-04-29T20:03:54.442Z,97017.84
2023-04-29T20:06:22.607Z,97021.97
2023-04-29T20:08:50.791Z,97022.78
2023-04-29T20:11:18.826Z,97027.16
2023-04-29T20:13:47.793Z,97037.56
2023-04-29T20:16:17.577Z,97030.94
2023-04-29T20:18:45.763Z,97035.59
2023-04-29T20:21:14.373Z,97032.28
2023-04-29T20:23:42.409Z,97042.09
2023-04-29T20:26:10.994Z,97032.50
2023-04-29T20:28:39.903Z,97038.31
2023-04-29T20:31:08.649Z,97037.25
2023-04-29T20:33:38.593Z,97040.22
2023-04-29T20:36:07.530Z,97032.66
2023-04-29T20:38:36.141Z,97033.25
2023-04-29T20:41:05.656Z,97046.69
2023-04-29T20:43:33.828Z,97038.78
2023-04-29T20:46:03.140Z,97041.50
2023-04-29T20:48:31.604Z,97046.69
2023-04-29T20:51:01.575Z,97043.25
2023-04-29T20:53:31.436Z,97039.72
2023-04-29T20:56:00.159Z,97041.38
2023-04-29T20:58:28.321Z,97044.56
2023-04-29T21:00:56.578Z,97046.09
2023-04-29T21:03:26.065Z,97044.69
2023-04-29T21:05:55.227Z,97048.09
2023-04-29T21:08:24.940Z,97047.88
2023-04-29T21:10:53.217Z,97052.34
2023-04-29T21:13:21.631Z,97047.50
2023-04-29T21:15:49.837Z,97054.47
2023-04-29T21:18:18.015Z,97053.31
2023-04-29T21:20:46.435Z,97056.97
2023-04-29T21:23:14.531Z,97055.56
2023-04-29T21:25:44.233Z,97061.44
2023-04-29T21:28:13.865Z,97064.41
2023-04-29T21:30:43.052Z,97056.63
2023-04-29T21:33:11.298Z,97061.31
2023-04-29T21:35:42.268Z,97062.53
2023-04-29T21:38:10.688Z,97057.91
2023-04-29T21:40:42.851Z,97057.56
2023-04-29T21:43:12.863Z,97059.09
2023-04-29T21:45:41.887Z,97058.84
2023-04-29T21:48:15.877Z,97056.50
2023-04-29T21:50:44.865Z,97060.38
2023-04-29T21:53:16.154Z,97056.13
2023-04-29T21:55:45.109Z,97057.22
2023-04-29T21:58:16.171Z,97061.19
2023-04-29T22:00:58.117Z,97054.72
2023-04-29T22:03:26.792Z,97068.53
2023-04-29T22:05:55.186Z,97060.63
2023-04-29T22:08:24.101Z,97065.59
2023-04-29T22:10:52.281Z,97066.53
2023-04-29T22:13:21.975Z,97068.91
2023-04-29T22:15:50.143Z,97070.56
2023-04-29T22:18:18.349Z,97066.41
2023-04-29T22:20:46.397Z,97071.03
2023-04-29T22:23:14.867Z,97061.34
2023-04-29T22:25:43.079Z,97062.66
2023-04-29T22:28:11.293Z,97067.03
2023-04-29T22:30:42.927Z,97061.25
2023-04-29T22:33:11.123Z,97058.63
2023-04-29T22:35:39.332Z,97069.03
2023-04-29T22:38:07.711Z,97064.31
2023-04-29T22:40:37.052Z,97068.69
2023-04-29T22:43:05.614Z,97065.81
2023-04-29T22:45:33.649Z,97061.09
2023-04-29T22:48:03.267Z,97063.94
2023-04-29T22:50:31.407Z,97065.81
2023-04-29T22:52:59.482Z,97063.22
2023-04-29T22:55:27.811Z,97063.09
2023-04-29T22:57:56.262Z,97062.53
2023-04-29T23:00:24.613Z,97068.41
2023-04-29T23:02:52.815Z,97070.78
2023-04-29T23:05:22.626Z,97067.47
2023-04-29T23:07:50.910Z,97071.28
2023-04-29T23:10:19.165Z,97077.78
2023-04-29T23:12:47.240Z,97082.50
2023-04-29T23:15:15.351Z,97074.97
2023-04-29T23:17:43.456Z,97083.47
2023-04-29T23:20:13.311Z,97078.50
2023-04-29T23:22:43.015Z,97086.53
2023-04-29T23:25:11.074Z,97079.66
2023-04-29T23:27:39.134Z,97089.47
2023-04-29T23:30:08.956Z,97087.69
2023-04-29T23:32:37.191Z,97081.94
2023-04-29T23:35:05.724Z,97089.13
2023-04-29T23:37:33.958Z,97087.69
2023-04-29T23:40:04.819Z,97085.81
2023-04-29T23:42:32.979Z,97088.19
2023-04-29T23:45:01.278Z,97090.53
2023-04-29T23:47:29.641Z,97084.72
2023-04-29T23:49:57.661Z,97087.19
2023-04-29T23:52:25.915Z,97086.22
2023-04-29T23:54:53.965Z,97082.81
2023-04-29T23:57:23.789Z,97090.69
2023-04-29T23:59:53.207Z,97090.63
